createdAt,value
2023-05-08T00:02:53.746Z,0
2023-05-08T00:08:12.839Z,0
2023-05-08T00:13:31.573Z,0
2023-05-08T00:18:50.636Z,0
2023-05-08T00:24:09.791Z,0
2023-05-08T00:29:29.068Z,0
2023-05-08T00:34:48.198Z,0
2023-05-08T00:40:07.174Z,0
2023-05-08T00:45:26.395Z,0
2023-05-08T00:50:46.006Z,0
2023-05-08T00:56:05.089Z,0
2023-05-08T01:01:24.400Z,0
2023-05-08T01:06:43.187Z,0
2023-05-08T01:12:01.953Z,0
2023-05-08T01:17:20.898Z,0
2023-05-08T01:28:00.101Z,0
2023-05-08T01:33:19.173Z,0
2023-05-08T01:43:57.306Z,0
2023-05-08T01:49:16.982Z,0
2023-05-08T01:54:35.927Z,0
2023-05-08T01:59:54.764Z,0
2023-05-08T02:05:14.352Z,0
2023-05-08T02:10:33.981Z,0
2023-05-08T02:15:52.754Z,0
2023-05-08T02:21:11.746Z,0
2023-05-08T02:26:31.068Z,0
2023-05-08T02:31:50.623Z,0
2023-05-08T02:37:09.469Z,0
2023-05-08T02:42:28.498Z,0
2023-05-08T02:47:47.885Z,0
2023-05-08T02:53:07.336Z,0
2023-05-08T02:58:26.340Z,0
2023-05-08T03:09:04.818Z,0
2023-05-08T03:14:23.725Z,0
2023-05-08T03:19:42.850Z,0
2023-05-08T03:25:01.714Z,0
2023-05-08T03:30:21.068Z,2
2023-05-08T03:35:39.971Z,9
2023-05-08T03:40:59.482Z,24
2023-05-08T03:51:38.434Z,70
2023-05-08T03:56:57.340Z,102
2023-05-08T04:02:16.089Z,145
2023-05-08T04:07:35.049Z,187
2023-05-08T04:12:54.111Z,229
2023-05-08T04:18:13.220Z,274
2023-05-08T04:23:32.580Z,332
2023-05-08T04:28:51.453Z,392
2023-05-08T04:34:11.235Z,468
2023-05-08T04:44:49.041Z,573
2023-05-08T04:50:08.088Z,723
2023-05-08T04:55:27.633Z,906
2023-05-08T05:00:54.884Z,1060
2023-05-08T05:06:05.957Z,1435
2023-05-08T05:11:25.386Z,1995
2023-05-08T05:16:44.859Z,2457
2023-05-08T05:27:23.161Z,3784
2023-05-08T05:32:42.372Z,4865
2023-05-08T05:38:01.282Z,5428
2023-05-08T05:43:20.312Z,5921
2023-05-08T05:48:39.192Z,6132
2023-05-08T05:53:58.679Z,6059
2023-05-08T05:59:17.784Z,6097
2023-05-08T06:04:37.291Z,6162
2023-05-08T06:09:56.700Z,6216
2023-05-08T06:15:15.577Z,5653
2023-05-08T06:20:34.613Z,5279
2023-05-08T06:25:53.899Z,5253
2023-05-08T06:31:13.266Z,5194
2023-05-08T06:36:32.582Z,5329
2023-05-08T06:41:51.246Z,6051
2023-05-08T06:52:29.231Z,7029
2023-05-08T06:57:48.166Z,7030
2023-05-08T07:08:25.758Z,8442
2023-05-08T07:13:53.418Z,9384
2023-05-08T07:19:04.610Z,9988
2023-05-08T07:24:24.133Z,10301
2023-05-08T07:29:43.741Z,10355
2023-05-08T07:35:03.235Z,10718
2023-05-08T07:40:22.366Z,11207
2023-05-08T07:45:41.092Z,12006
2023-05-08T07:51:00.302Z,11474
2023-05-08T07:56:19.684Z,12957
2023-05-08T08:01:39.290Z,13019
2023-05-08T08:06:58.632Z,13909
2023-05-08T08:12:18.018Z,11290
2023-05-08T08:17:37.298Z,10534
2023-05-08T08:22:56.647Z,10254
2023-05-08T08:28:15.662Z,9492
2023-05-08T08:33:35.076Z,8458
2023-05-08T08:38:54.407Z,8697
2023-05-08T08:49:32.684Z,7964
2023-05-08T08:54:51.996Z,8690
2023-05-08T09:00:11.083Z,8900
2023-05-08T09:05:30.256Z,8106
2023-05-08T09:10:49.655Z,8589
2023-05-08T09:16:08.615Z,9102
2023-05-08T09:21:27.716Z,8523
2023-05-08T09:32:06.034Z,8739
2023-05-08T09:37:25.315Z,9070
2023-05-08T09:42:44.707Z,8135
2023-05-08T09:48:04.073Z,8365
2023-05-08T09:53:23.077Z,7899
2023-05-08T09:58:42.682Z,8184
2023-05-08T10:04:02.267Z,9211
2023-05-08T10:09:21.040Z,9500
2023-05-08T10:14:39.876Z,10020
2023-05-08T10:19:58.662Z,11426
2023-05-08T10:25:17.459Z,16002
2023-05-08T10:30:36.710Z,21785
2023-05-08T10:35:56.083Z,26499
2023-05-08T10:41:15.697Z,27229
2023-05-08T10:46:35.284Z,26364
2023-05-08T10:51:54.311Z,22333
2023-05-08T10:57:13.345Z,19935
2023-05-08T11:02:32.701Z,17738
2023-05-08T11:07:51.636Z,18971
2023-05-08T11:13:10.726Z,17650
2023-05-08T11:18:38.458Z,16814
2023-05-08T11:23:49.379Z,16329
2023-05-08T11:29:08.436Z,15110
2023-05-08T11:34:27.155Z,14734
2023-05-08T11:39:46.460Z,12681
2023-05-08T11:50:24.311Z,12174
2023-05-08T12:01:02.599Z,12828
2023-05-08T12:06:21.759Z,10839
2023-05-08T12:11:40.756Z,10700
2023-05-08T12:17:00.411Z,10286
2023-05-08T12:22:19.401Z,9882
2023-05-08T12:27:38.424Z,11324
2023-05-08T12:32:58.034Z,14723
2023-05-08T12:38:17.057Z,12832
2023-05-08T12:43:36.441Z,16113
2023-05-08T12:48:56.182Z,14367
2023-05-08T12:54:15.626Z,17198
2023-05-08T12:59:35.167Z,17226
2023-05-08T13:04:54.344Z,16199
2023-05-08T13:10:13.115Z,17526
2023-05-08T13:15:31.810Z,19933
2023-05-08T13:26:09.841Z,19392
2023-05-08T13:31:29.062Z,18225
2023-05-08T13:36:48.483Z,17494
2023-05-08T13:42:07.292Z,16885
2023-05-08T13:47:26.392Z,16704
2023-05-08T13:52:45.063Z,19344
2023-05-08T13:58:14.564Z,17342
2023-05-08T14:03:23.838Z,16992
2023-05-08T14:14:02.584Z,12253
2023-05-08T14:19:22.132Z,11132
2023-05-08T14:24:41.654Z,8839
2023-05-08T14:30:00.944Z,9535
2023-05-08T14:35:20.461Z,9151
2023-05-08T14:40:39.273Z,9308
2023-05-08T14:45:58.515Z,8292
2023-05-08T14:51:18.046Z,7369
2023-05-08T14:56:46.956Z,6444
2023-05-08T15:01:57.258Z,5629
2023-05-08T15:07:15.998Z,5723
2023-05-08T15:12:35.457Z,5647
2023-05-08T15:17:54.749Z,5656
2023-05-08T15:23:13.807Z,7331
2023-05-08T15:28:32.640Z,8707
2023-05-08T15:33:52.165Z,9200
2023-05-08T15:34:17.139Z,9220
2023-05-08T15:39:36.334Z,9859
2023-05-08T15:44:55.399Z,8492
2023-05-08T15:50:14.784Z,7747
2023-05-08T15:55:34.022Z,6778
2023-05-08T16:00:53.406Z,5781
2023-05-08T16:06:12.523Z,6303
2023-05-08T16:11:32.181Z,6635
2023-05-08T16:17:00.933Z,6106
2023-05-08T16:27:29.003Z,7741
2023-05-08T16:32:47.897Z,7037
2023-05-08T16:38:07.244Z,5264
2023-05-08T16:43:34.918Z,4100
2023-05-08T16:48:46.140Z,3630
2023-05-08T16:54:05.845Z,3951
2023-05-08T16:59:24.836Z,3470
2023-05-08T17:10:03.499Z,3085
2023-05-08T17:15:22.566Z,3002
2023-05-08T17:26:01.849Z,2805
2023-05-08T17:31:21.038Z,2570
2023-05-08T17:36:40.237Z,2650
2023-05-08T17:41:59.341Z,2024
2023-05-08T17:47:18.881Z,1467
2023-05-08T17:52:38.039Z,1225
2023-05-08T18:03:16.825Z,844
2023-05-08T18:08:35.975Z,677
2023-05-08T18:13:55.531Z,554
2023-05-08T18:19:14.870Z,363
2023-05-08T18:24:34.583Z,252
2023-05-08T18:29:53.953Z,204
2023-05-08T18:35:13.127Z,165
2023-05-08T18:45:51.107Z,74
2023-05-08T18:51:10.438Z,47
2023-05-08T18:56:29.258Z,30
2023-05-08T19:01:48.688Z,15
2023-05-08T19:07:08.102Z,7
2023-05-08T19:12:27.705Z,3
2023-05-08T19:17:47.266Z,0
2023-05-08T19:23:15.737Z,0
2023-05-08T19:28:26.115Z,0
2023-05-08T19:33:55.408Z,0
2023-05-08T19:39:04.975Z,0
2023-05-08T19:44:24.491Z,0
2023-05-08T19:49:43.617Z,0
2023-05-08T19:55:02.454Z,0
2023-05-08T20:00:21.720Z,0
2023-05-08T20:11:00.211Z,0
2023-05-08T20:16:19.814Z,0
2023-05-08T20:26:58.369Z,0
2023-05-08T20:32:17.844Z,0
2023-05-08T20:37:36.917Z,0
2023-05-08T20:42:56.011Z,0
2023-05-08T20:48:15.686Z,0
2023-05-08T20:53:34.758Z,0
2023-05-08T20:58:53.581Z,0
2023-05-08T21:09:31.875Z,0
2023-05-08T21:14:51.478Z,0
2023-05-08T21:25:30.251Z,0
2023-05-08T21:36:41.102Z,0
2023-05-08T21:41:27.589Z,0
2023-05-08T21:52:05.827Z,0
2023-05-08T21:57:33.822Z,0
2023-05-08T22:08:03.268Z,0
2023-05-08T22:13:22.610Z,0
2023-05-08T22:18:41.033Z,0
2023-05-08T22:24:00.472Z,0
2023-05-08T22:29:19.577Z,0
2023-05-08T22:34:38.980Z,0
2023-05-08T22:39:57.852Z,0
2023-05-08T22:50:35.846Z,0
2023-05-08T23:01:14.280Z,0
2023-05-08T23:06:33.560Z,0
2023-05-08T23:11:53.362Z,0
2023-05-08T23:17:12.495Z,0
2023-05-08T23:22:32.194Z,0
2023-05-08T23:27:51.236Z,0
2023-05-08T23:33:10.854Z,0
2023-05-08T23:38:30.218Z,0
2023-05-08T23:49:08.652Z,0
2023-05-08T23:54:28.075Z,0
2023-05-08T23:59:47.588Z,0
